Time,TemperatureF,DewpointF,PressureIn,WindDirection,WindDirectionDegrees,WindSpeedMPH,WindSpeedGustMPH,Humidity,HourlyPrecipIn,Conditions,Clouds,dailyrainin,SolarRadiationWatts/m^2,SoftwareType,DateUTC
2013-09-08 00:01:00,58.0,50.0,-100.00,West,268,0.0,2.0,76,0.00,,,0.00,0.000000,,2013-09-08 07:01:00,
2013-09-08 00:12:00,58.0,50.0,-100.00,West,268,0.0,2.0,76,0.00,,,0.00,0.000000,,2013-09-08 07:12:00,
2013-09-08 00:23:00,58.0,50.0,-100.00,West,268,0.0,2.0,76,0.00,,,0.00,0.000000,,2013-09-08 07:23:00,
2013-09-08 00:31:00,57.0,50.0,-100.00,SSE,166,0.0,1.0,76,0.00,,,0.00,0.000000,,2013-09-08 07:31:00,
2013-09-08 00:52:00,57.0,50.0,-100.00,SSE,166,0.0,1.0,76,0.00,,,0.00,0.000000,,2013-09-08 07:52:00,
2013-09-08 01:02:00,57.0,50.0,-100.00,SSE,166,0.0,1.0,76,0.00,,,0.00,0.000000,,2013-09-08 08:02:00,
2013-09-08 01:11:00,57.0,50.0,-100.00,SSE,166,0.0,1.0,76,0.00,,,0.00,0.000000,,2013-09-08 08:11:00,
2013-09-08 01:22:00,57.0,50.0,-100.00,SSE,166,0.0,1.0,76,0.00,,,0.00,0.000000,,2013-09-08 08:22:00,
2013-09-08 01:31:00,56.0,49.0,-100.00,SSW,198,1.0,2.0,77,0.00,,,0.00,0.000000,,2013-09-08 08:31:00,
2013-09-08 01:52:00,56.0,49.0,-100.00,SSW,198,1.0,2.0,77,0.00,,,0.00,0.000000,,2013-09-08 08:52:00,
2013-09-08 02:02:00,56.0,49.0,-100.00,SSW,198,1.0,2.0,77,0.00,,,0.00,0.000000,,2013-09-08 09:02:00,
2013-09-08 02:11:00,56.0,49.0,-100.00,SSW,198,1.0,2.0,77,0.00,,,0.00,0.000000,,2013-09-08 09:11:00,
2013-09-08 02:22:00,56.0,49.0,-100.00,SSW,198,1.0,2.0,77,0.00,,,0.00,0.000000,,2013-09-08 09:22:00,
2013-09-08 02:31:00,54.0,48.0,-100.00,WNW,292,0.0,3.0,81,0.00,,,0.00,0.000000,,2013-09-08 09:31:00,
2013-09-08 02:54:00,54.0,48.0,-100.00,WNW,292,0.0,3.0,81,0.00,,,0.00,0.000000,,2013-09-08 09:54:00,
2013-09-08 03:03:00,54.0,48.0,-100.00,WNW,292,0.0,3.0,81,0.00,,,0.00,0.000000,,2013-09-08 10:03:00,
2013-09-08 03:12:00,54.0,48.0,-100.00,WNW,292,0.0,3.0,81,0.00,,,0.00,0.000000,,2013-09-08 10:12:00,
2013-09-08 03:23:00,54.0,48.0,-100.00,WNW,292,0.0,3.0,81,0.00,,,0.00,0.000000,,2013-09-08 10:23:00,
2013-09-08 03:31:00,53.0,48.0,-100.00,SSW,197,0.0,3.0,83,0.00,,,0.00,0.000000,,2013-09-08 10:31:00,
2013-09-08 04:12:00,53.0,48.0,-100.00,SSW,197,0.0,3.0,83,0.00,,,0.00,0.000000,,2013-09-08 11:12:00,
2013-09-08 04:21:00,53.0,48.0,-100.00,SSW,197,0.0,3.0,83,0.00,,,0.00,0.000000,,2013-09-08 11:21:00,
2013-09-08 04:31:00,53.0,48.0,-100.00,WSW,238,0.0,4.0,84,0.00,,,0.00,0.000000,,2013-09-08 11:31:00,
2013-09-08 04:52:00,53.0,48.0,-100.00,WSW,238,0.0,4.0,84,0.00,,,0.00,0.000000,,2013-09-08 11:52:00,
2013-09-08 05:02:00,53.0,48.0,-100.00,WSW,238,0.0,4.0,84,0.00,,,0.00,0.000000,,2013-09-08 12:02:00,
2013-09-08 05:12:00,53.0,48.0,-100.00,WSW,238,0.0,4.0,84,0.00,,,0.00,0.000000,,2013-09-08 12:12:00,
2013-09-08 05:21:00,53.0,48.0,-100.00,WSW,238,0.0,4.0,84,0.00,,,0.00,0.000000,,2013-09-08 12:21:00,
2013-09-08 05:31:00,52.0,48.0,-100.00,SSW,204,2.0,5.0,86,0.00,,,0.00,0.000000,,2013-09-08 12:31:00,
2013-09-08 05:52:00,52.0,48.0,-100.00,SSW,204,2.0,5.0,86,0.00,,,0.00,0.000000,,2013-09-08 12:52:00,
2013-09-08 06:01:00,52.0,48.0,-100.00,SSW,204,2.0,5.0,86,0.00,,,0.00,0.000000,,2013-09-08 13:01:00,
2013-09-08 06:11:00,52.0,48.0,-100.00,SSW,204,2.0,5.0,86,0.00,,,0.00,0.000000,,2013-09-08 13:11:00,
2013-09-08 06:22:00,52.0,48.0,-100.00,SSW,204,2.0,5.0,86,0.00,,,0.00,0.000000,,2013-09-08 13:22:00,
2013-09-08 06:31:00,52.0,48.0,-100.00,SSW,194,2.0,4.0,86,0.00,,,0.00,0.000000,,2013-09-08 13:31:00,
2013-09-08 06:52:00,52.0,48.0,-100.00,SSW,194,2.0,4.0,86,0.00,,,0.00,0.000000,,2013-09-08 13:52:00,
2013-09-08 07:02:00,52.0,48.0,-100.00,SSW,194,2.0,4.0,86,0.00,,,0.00,0.000000,,2013-09-08 14:02:00,
2013-09-08 07:11:00,52.0,48.0,-100.00,SSW,194,2.0,4.0,86,0.00,,,0.00,0.000000,,2013-09-08 14:11:00,
2013-09-08 07:22:00,52.0,48.0,-100.00,SSW,194,2.0,4.0,86,0.00,,,0.00,0.000000,,2013-09-08 14:22:00,
2013-09-08 07:31:00,51.0,48.0,-100.00,NNW,343,1.0,3.0,89,0.00,,,0.00,10.000000,,2013-09-08 14:31:00,
2013-09-08 07:52:00,51.0,48.0,-100.00,NNW,343,1.0,3.0,89,0.00,,,0.00,10.000000,,2013-09-08 14:52:00,
2013-09-08 08:02:00,51.0,48.0,-100.00,NNW,343,1.0,3.0,89,0.00,,,0.00,10.000000,,2013-09-08 15:02:00,
2013-09-08 08:12:00,51.0,48.0,-100.00,NNW,343,1.0,3.0,89,0.00,,,0.00,10.000000,,2013-09-08 15:12:00,
2013-09-08 08:23:00,51.0,48.0,-100.00,NNW,343,1.0,3.0,89,0.00,,,0.00,10.000000,,2013-09-08 15:23:00,
2013-09-08 08:31:00,59.0,52.0,-100.00,NNE,16,2.0,6.0,79,0.00,,,-99.99,156.000000,,2013-09-08 15:31:00,
2013-09-08 09:23:00,59.0,52.0,-100.00,NNE,16,2.0,6.0,79,0.00,,,-99.99,156.000000,,2013-09-08 16:23:00,
2013-09-08 10:31:00,68.0,52.0,-100.00,NNE,12,3.0,6.0,56,0.00,,,0.00,569.000000,,2013-09-08 17:31:00,
2013-09-08 10:53:00,68.0,52.0,-100.00,NNE,12,3.0,6.0,56,0.00,,,0.00,569.000000,,2013-09-08 17:53:00,
2013-09-08 11:02:00,68.0,52.0,-100.00,NNE,12,3.0,6.0,56,0.00,,,0.00,569.000000,,2013-09-08 18:02:00,
2013-09-08 11:22:00,68.0,52.0,-100.00,NNE,12,3.0,6.0,56,0.00,,,0.00,569.000000,,2013-09-08 18:22:00,
2013-09-08 11:31:00,71.0,51.0,-100.00,ENE,58,4.0,7.0,50,0.00,,,0.00,702.000000,,2013-09-08 18:31:00,
2013-09-08 11:52:00,71.0,51.0,-100.00,ENE,58,4.0,7.0,50,0.00,,,0.00,702.000000,,2013-09-08 18:52:00,
2013-09-08 12:01:00,71.0,51.0,-100.00,ENE,58,4.0,7.0,50,0.00,,,0.00,702.000000,,2013-09-08 19:01:00,
2013-09-08 12:12:00,71.0,51.0,-100.00,ENE,58,4.0,7.0,50,0.00,,,0.00,702.000000,,2013-09-08 19:12:00,
2013-09-08 12:22:00,71.0,51.0,-100.00,ENE,58,4.0,7.0,50,0.00,,,0.00,702.000000,,2013-09-08 19:22:00,
2013-09-08 12:31:00,73.0,50.0,-100.00,ENE,67,4.0,8.0,45,0.00,,,0.00,784.000000,,2013-09-08 19:31:00,
2013-09-08 12:52:00,73.0,50.0,-100.00,ENE,67,4.0,8.0,45,0.00,,,0.00,784.000000,,2013-09-08 19:52:00,
2013-09-08 13:03:00,73.0,50.0,-100.00,ENE,67,4.0,8.0,45,0.00,,,0.00,784.000000,,2013-09-08 20:03:00,
2013-09-08 13:11:00,73.0,50.0,-100.00,ENE,67,4.0,8.0,45,0.00,,,0.00,784.000000,,2013-09-08 20:11:00,
2013-09-08 13:22:00,73.0,50.0,-100.00,ENE,67,4.0,8.0,45,0.00,,,0.00,784.000000,,2013-09-08 20:22:00,
2013-09-08 13:31:00,76.0,49.0,-100.00,NE,35,4.0,8.0,39,0.00,,,0.00,808.000000,,2013-09-08 20:31:00,
2013-09-08 13:53:00,76.0,49.0,-100.00,NE,35,4.0,8.0,39,0.00,,,0.00,808.000000,,2013-09-08 20:53:00,
2013-09-08 14:02:00,76.0,49.0,-100.00,NE,35,4.0,8.0,39,0.00,,,0.00,808.000000,,2013-09-08 21:02:00,
2013-09-08 14:12:00,76.0,49.0,-100.00,NE,35,4.0,8.0,39,0.00,,,0.00,808.000000,,2013-09-08 21:12:00,
2013-09-08 14:22:00,76.0,49.0,-100.00,NE,35,4.0,8.0,39,0.00,,,0.00,808.000000,,2013-09-08 21:22:00,
2013-09-08 14:31:00,79.0,47.0,-100.00,NE,37,4.0,10.0,33,0.00,,,0.00,779.000000,,2013-09-08 21:31:00,
2013-09-08 14:54:00,79.0,47.0,-100.00,NE,37,4.0,10.0,33,0.00,,,0.00,779.000000,,2013-09-08 21:54:00,
2013-09-08 15:04:00,79.0,47.0,-100.00,NE,37,4.0,10.0,33,0.00,,,0.00,779.000000,,2013-09-08 22:04:00,
2013-09-08 15:13:00,79.0,47.0,-100.00,NE,37,4.0,10.0,33,0.00,,,0.00,779.000000,,2013-09-08 22:13:00,
2013-09-08 15:24:00,79.0,47.0,-100.00,NE,37,4.0,10.0,33,0.00,,,0.00,779.000000,,2013-09-08 22:24:00,
2013-09-08 15:31:00,80.0,46.0,-100.00,NE,47,4.0,9.0,30,0.00,,,-99.99,681.000000,,2013-09-08 22:31:00,
2013-09-08 15:53:00,80.0,46.0,-100.00,NE,47,4.0,9.0,30,0.00,,,-99.99,681.000000,,2013-09-08 22:53:00,
2013-09-08 16:04:00,80.0,46.0,-100.00,NE,47,4.0,9.0,30,0.00,,,-99.99,681.000000,,2013-09-08 23:04:00,
2013-09-08 16:12:00,80.0,46.0,-100.00,NE,47,4.0,9.0,30,0.00,,,-99.99,681.000000,,2013-09-08 23:12:00,
2013-09-08 16:22:00,80.0,46.0,-100.00,NE,47,4.0,9.0,30,0.00,,,-99.99,681.000000,,2013-09-08 23:22:00,
2013-09-08 16:31:00,80.0,45.0,-100.00,NE,42,4.0,10.0,29,0.00,,,0.00,564.000000,,2013-09-08 23:31:00,
2013-09-08 16:52:00,80.0,45.0,-100.00,NE,42,4.0,10.0,29,0.00,,,0.00,564.000000,,2013-09-08 23:52:00,
2013-09-08 17:02:00,80.0,45.0,-100.00,NE,42,4.0,10.0,29,0.00,,,0.00,564.000000,,2013-09-09 00:02:00,
2013-09-08 17:11:00,80.0,45.0,-100.00,NE,42,4.0,10.0,29,0.00,,,0.00,564.000000,,2013-09-09 00:11:00,
2013-09-08 17:21:00,80.0,45.0,-100.00,NE,42,4.0,10.0,29,0.00,,,0.00,564.000000,,2013-09-09 00:21:00,
2013-09-08 17:31:00,78.0,42.0,-100.00,NNE,30,4.0,9.0,28,0.00,,,0.00,396.000000,,2013-09-09 00:31:00,
2013-09-08 17:52:00,78.0,42.0,-100.00,NNE,30,4.0,9.0,28,0.00,,,0.00,396.000000,,2013-09-09 00:52:00,
2013-09-08 18:01:00,78.0,42.0,-100.00,NNE,30,4.0,9.0,28,0.00,,,0.00,396.000000,,2013-09-09 01:01:00,
2013-09-08 18:12:00,78.0,42.0,-100.00,NNE,30,4.0,9.0,28,0.00,,,0.00,396.000000,,2013-09-09 01:12:00,
2013-09-08 18:21:00,78.0,42.0,-100.00,NNE,30,4.0,9.0,28,0.00,,,0.00,396.000000,,2013-09-09 01:21:00,
2013-09-08 18:31:00,72.0,43.0,-100.00,North,350,3.0,8.0,35,0.00,,,0.00,140.000000,,2013-09-09 01:31:00,
2013-09-08 18:52:00,72.0,43.0,-100.00,North,350,3.0,8.0,35,0.00,,,0.00,140.000000,,2013-09-09 01:52:00,
2013-09-08 19:02:00,72.0,43.0,-100.00,North,350,3.0,8.0,35,0.00,,,0.00,140.000000,,2013-09-09 02:02:00,
2013-09-08 19:11:00,72.0,43.0,-100.00,North,350,3.0,8.0,35,0.00,,,0.00,140.000000,,2013-09-09 02:11:00,
2013-09-08 19:21:00,72.0,43.0,-100.00,North,350,3.0,8.0,35,0.00,,,0.00,140.000000,,2013-09-09 02:21:00,
2013-09-08 19:31:00,67.0,44.0,-100.00,WNW,282,2.0,6.0,44,0.00,,,0.00,12.000000,,2013-09-09 02:31:00,
2013-09-08 19:53:00,67.0,44.0,-100.00,WNW,282,2.0,6.0,44,0.00,,,0.00,12.000000,,2013-09-09 02:53:00,
2013-09-08 20:02:00,67.0,44.0,-100.00,WNW,282,2.0,6.0,44,0.00,,,0.00,12.000000,,2013-09-09 03:02:00,
2013-09-08 20:12:00,67.0,44.0,-100.00,WNW,282,2.0,6.0,44,0.00,,,0.00,12.000000,,2013-09-09 03:12:00,
2013-09-08 20:22:00,67.0,44.0,-100.00,WNW,282,2.0,6.0,44,0.00,,,0.00,12.000000,,2013-09-09 03:22:00,
2013-09-08 20:31:00,65.0,44.0,-100.00,NW,325,1.0,5.0,46,0.00,,,0.00,0.000000,,2013-09-09 03:31:00,
2013-09-08 20:55:00,65.0,44.0,-100.00,NW,325,1.0,5.0,46,0.00,,,0.00,0.000000,,2013-09-09 03:55:00,
2013-09-08 21:03:00,65.0,44.0,-100.00,NW,325,1.0,5.0,46,0.00,,,0.00,0.000000,,2013-09-09 04:03:00,
2013-09-08 21:14:00,65.0,44.0,-100.00,NW,325,1.0,5.0,46,0.00,,,0.00,0.000000,,2013-09-09 04:14:00,
2013-09-08 21:24:00,65.0,44.0,-100.00,NW,325,1.0,5.0,46,0.00,,,0.00,0.000000,,2013-09-09 04:24:00,
2013-09-08 21:54:00,64.0,43.0,-100.00,NNW,332,1.0,3.0,46,0.00,,,0.00,0.000000,,2013-09-09 04:54:00,
2013-09-08 22:03:00,64.0,43.0,-100.00,NNW,332,1.0,3.0,46,0.00,,,0.00,0.000000,,2013-09-09 05:03:00,
2013-09-08 22:13:00,64.0,43.0,-100.00,NNW,332,1.0,3.0,46,0.00,,,0.00,0.000000,,2013-09-09 05:13:00,
2013-09-08 22:53:00,62.0,43.0,-100.00,WSW,243,2.0,3.0,50,0.00,,,0.00,0.000000,,2013-09-09 05:53:00,
2013-09-08 23:02:00,62.0,43.0,-100.00,WSW,243,2.0,3.0,50,0.00,,,0.00,0.000000,,2013-09-09 06:02:00,
2013-09-08 23:12:00,62.0,43.0,-100.00,WSW,243,2.0,3.0,50,0.00,,,0.00,0.000000,,2013-09-09 06:12:00,
2013-09-08 23:52:00,60.0,44.0,-100.00,South,189,4.0,6.0,55,-99.99,,,0.00,0.000000,,2013-09-09 06:52:00,